| time (UTC) | temp F | wind direction | speed MPH | gust MPH | rain 1hr in | rain 24hr in | rain mn in | humidity % | barometer mb |
| 20260510224551 | 80 | 188 | 8.0 | 16.0 | 0.00 | 0.00 | 0.00 | 26 | 1017.9 |
| 20260510223050 | 81 | 79 | 3.0 | 10.0 | 0.00 | 0.00 | 0.00 | 23 | 1017.8 |
| 20260510221549 | 81 | 108 | 3.0 | 11.0 | 0.00 | 0.00 | 0.00 | 21 | 1017.8 |
| 20260510220054 | 81 | 102 | 6.0 | 13.0 | 0.00 | 0.00 | 0.00 | 21 | 1018.0 |
| 20260510214552 | 82 | 49 | 6.0 | 11.0 | 0.00 | 0.00 | 0.00 | 22 | 1018.0 |
| 20260510213051 | 84 | 101 | 5.0 | 9.0 | 0.00 | 0.00 | 0.00 | 14 | 1018.1 |
| 20260510211549 | 84 | 188 | 2.0 | 8.0 | 0.00 | 0.00 | 0.00 | 16 | 1018.3 |
| 20260510210053 | 85 | 101 | 2.0 | 6.0 | 0.00 | 0.00 | 0.00 | 10 | 1018.3 |
| 20260510204555 | 85 | 255 | 4.0 | 9.0 | 0.00 | 0.00 | 0.00 | 12 | 1018.5 |
| 20260510203051 | 85 | 72 | 2.0 | 9.0 | 0.00 | 0.00 | 0.00 | 11 | 1018.5 |
| 20260510201554 | 86 | 72 | 1.0 | 6.0 | 0.00 | 0.00 | 0.00 | 11 | 1018.7 |
| 20260510200052 | 85 | 0 | 1.0 | 6.0 | 0.00 | 0.00 | 0.00 | 12 | 1018.8 |
| 20260510194551 | 83 | 1 | 3.0 | 11.0 | 0.00 | 0.00 | 0.00 | 11 | 1018.9 |
| 20260510193053 | 84 | 33 | 1.0 | 6.0 | 0.00 | 0.00 | 0.00 | 14 | 1019.1 |
| 20260510191550 | 83 | 127 | 1.0 | 8.0 | 0.00 | 0.00 | 0.00 | 15 | 1019.2 |
| 20260510190054 | 79 | 94 | 0.0 | 7.0 | 0.00 | 0.00 | 0.00 | 17 | 1019.2 |
| 20260510184553 | 84 | 46 | 1.0 | 8.0 | 0.00 | 0.00 | 0.00 | 15 | 1019.2 |
| 20260510183049 | 85 | 254 | 1.0 | 6.0 | 0.00 | 0.00 | 0.00 | 14 | 1019.2 |
| 20260510181555 | 84 | 301 | 3.0 | 6.0 | 0.00 | 0.00 | 0.00 | 15 | 1019.3 |
| 20260510180103 | 83 | 51 | 1.0 | 6.0 | 0.00 | 0.00 | 0.00 | 18 | 1019.5 |
| 20260510174553 | 83 | 215 | 1.0 | 3.0 | 0.00 | 0.00 | 0.00 | 16 | 1019.6 |
| 20260510173054 | 84 | 236 | 1.0 | 4.0 | 0.00 | 0.00 | 0.00 | 17 | 1019.6 |
| 20260510171552 | 83 | 304 | 0.0 | 3.0 | 0.00 | 0.00 | 0.00 | 19 | 1019.7 |
| 20260510170053 | 82 | 55 | 3.0 | 5.0 | 0.00 | 0.00 | 0.00 | 16 | 1019.6 |
| 20260510164557 | 83 | 281 | 1.0 | 3.0 | 0.00 | 0.00 | 0.00 | 19 | 1019.5 |
| 20260510163057 | 81 | 251 | 0.0 | 6.0 | 0.00 | 0.00 | 0.00 | 23 | 1019.6 |
| 20260510161552 | 82 | 325 | 1.0 | 5.0 | 0.00 | 0.00 | 0.00 | 18 | 1019.4 |
| 20260510160051 | 80 | 235 | 1.0 | 4.0 | 0.00 | 0.00 | 0.00 | 24 | 1019.5 |
| 20260510154553 | 78 | 332 | 1.0 | 3.0 | 0.00 | 0.00 | 0.00 | 23 | 1019.5 |
| 20260510153051 | 77 | 60 | 2.0 | 4.0 | 0.00 | 0.00 | 0.00 | 21 | 1019.4 |
| 20260510151556 | 78 | 41 | 0.0 | 2.0 | 0.00 | 0.00 | 0.00 | 23 | 1019.3 |
| 20260510150054 | 75 | 0 | 0.0 | 1.0 | 0.00 | 0.00 | 0.00 | 31 | 1019.2 |
| 20260510144603 | 71 | 0 | 0.0 | 0.0 | 0.00 | 0.00 | 0.00 | 34 | 1019.1 |
| 20260510143059 | 65 | 0 | 0.0 | 1.0 | 0.00 | 0.00 | 0.00 | 40 | 1018.9 |
| 20260510141554 | 63 | 332 | 0.0 | 2.0 | 0.00 | 0.00 | 0.00 | 42 | 1019.0 |
| 20260510140057 | 59 | 0 | 0.0 | 1.0 | 0.00 | 0.00 | 0.00 | 45 | 1018.9 |
| 20260510134550 | 56 | 0 | 0.0 | 0.0 | 0.00 | 0.00 | 0.00 | 50 | 1018.9 |
| 20260510133055 | 55 | 0 | 0.0 | 0.0 | 0.00 | 0.00 | 0.00 | 47 | 1018.8 |
| 20260510131553 | 57 | 0 | 0.0 | 2.0 | 0.00 | 0.00 | 0.00 | 41 | 1018.6 |
| 20260510130115 | 59 | 0 | 0.0 | 0.0 | 0.00 | 0.00 | 0.00 | 38 | 1018.1 |
| 20260510124554 | 59 | 317 | 0.0 | 0.0 | 0.00 | 0.00 | 0.00 | 35 | 1018.0 |
| 20260510123056 | 60 | 0 | 0.0 | 1.0 | 0.00 | 0.00 | 0.00 | 39 | 1017.8 |
| 20260510121553 | 60 | 293 | 0.0 | 1.0 | 0.00 | 0.00 | 0.00 | 37 | 1017.7 |
| 20260510120054 | 62 | 23 | 0.0 | 1.0 | 0.00 | 0.00 | 0.00 | 36 | 1017.3 |
| 20260510114554 | 64 | 0 | 0.0 | 3.0 | 0.00 | 0.00 | 0.00 | 33 | 1017.1 |
| 20260510113112 | 65 | 0 | 0.0 | 2.0 | 0.00 | 0.00 | 0.00 | 30 | 1017.1 |
| 20260510111551 | 65 | 150 | 1.0 | 2.0 | 0.00 | 0.00 | 0.00 | 30 | 1017.2 |
| 20260510110051 | 64 | 0 | 0.0 | 2.0 | 0.00 | 0.00 | 0.00 | 31 | 1017.5 |
| 20260510104554 | 64 | 0 | 0.0 | 1.0 | 0.00 | 0.00 | 0.00 | 31 | 1017.9 |
| 20260510103101 | 65 | 0 | 0.0 | 1.0 | 0.00 | 0.00 | 0.00 | 30 | 1018.0 |
| 20260510101559 | 67 | 0 | 0.0 | 1.0 | 0.00 | 0.00 | 0.00 | 27 | 1017.8 |
| 20260510100059 | 68 | 0 | 0.0 | 1.0 | 0.00 | 0.00 | 0.00 | 24 | 1017.2 |
| 20260510094552 | 69 | 292 | 1.0 | 10.0 | 0.00 | 0.00 | 0.00 | 23 | 1016.7 |
| 20260510093051 | 69 | 0 | 1.0 | 5.0 | 0.00 | 0.00 | 0.00 | 22 | 1016.5 |
| 20260510091549 | 69 | 292 | 2.0 | 9.0 | 0.00 | 0.00 | 0.00 | 22 | 1016.3 |
| 20260510090054 | 65 | 266 | 0.0 | 5.0 | 0.00 | 0.00 | 0.00 | 25 | 1016.3 |
| 20260510084600 | 65 | 0 | 0.0 | 3.0 | 0.00 | 0.00 | 0.00 | 25 | 1016.1 |
| 20260510083049 | 65 | 41 | 1.0 | 6.0 | 0.00 | 0.00 | 0.00 | 25 | 1016.0 |
| 20260510081556 | 63 | 274 | 1.0 | 4.0 | 0.00 | 0.00 | 0.00 | 25 | 1015.8 |
| 20260510074600 | 59 | 0 | 0.0 | 2.0 | 0.00 | 0.00 | 0.00 | 31 | 1015.7 |
| 20260510073114 | 57 | 0 | 0.0 | 1.0 | 0.00 | 0.00 | 0.00 | 38 | 1015.6 |
| 20260510071552 | 58 | 0 | 0.0 | 0.0 | 0.00 | 0.00 | 0.00 | 41 | 1015.6 |
| 20260510070100 | 59 | 0 | 0.0 | 1.0 | 0.00 | 0.00 | 0.00 | 36 | 1015.3 |
| 20260510064636 | 60 | 0 | 0.0 | 0.0 | 0.00 | 0.00 | 0.00 | 32 | 1015.2 |
| 20260510063055 | 60 | 0 | 0.0 | 0.0 | 0.00 | 0.00 | 0.00 | 34 | 1015.1 |
| 20260510061552 | 61 | 0 | 0.0 | 0.0 | 0.00 | 0.00 | 0.00 | 26 | 1014.7 |
| 20260510060056 | 60 | 0 | 0.0 | 1.0 | 0.00 | 0.00 | 0.00 | 26 | 1014.4 |
| 20260510054559 | 59 | 0 | 0.0 | 1.0 | 0.00 | 0.00 | 0.00 | 29 | 1014.2 |
| 20260510053057 | 59 | 0 | 0.0 | 1.0 | 0.00 | 0.00 | 0.00 | 30 | 1014.1 |
| 20260510051557 | 60 | 0 | 0.0 | 1.0 | 0.00 | 0.00 | 0.00 | 30 | 1014.1 |
| 20260510050052 | 61 | 0 | 0.0 | 0.0 | 0.00 | 0.00 | 0.00 | 29 | 1013.9 |
| 20260510044555 | 63 | 0 | 0.0 | 1.0 | 0.00 | 0.00 | 0.00 | 27 | 1013.8 |
| 20260510043052 | 65 | 0 | 0.0 | 0.0 | 0.00 | 0.00 | 0.00 | 22 | 1013.8 |
| 20260510041557 | 63 | 0 | 0.0 | 1.0 | 0.00 | 0.00 | 0.00 | 25 | 1013.6 |
| 20260510040058 | 60 | 0 | 0.0 | 0.0 | 0.00 | 0.00 | 0.00 | 34 | 1013.3 |
| 20260510034609 | 62 | 0 | 0.0 | 0.0 | 0.00 | 0.00 | 0.00 | 35 | 1012.9 |
| 20260510033057 | 63 | 0 | 0.0 | 0.0 | 0.00 | 0.00 | 0.00 | 32 | 1012.8 |
| 20260510031553 | 65 | 0 | 0.0 | 0.0 | 0.00 | 0.00 | 0.00 | 31 | 1012.5 |
| 20260510030054 | 67 | 0 | 0.0 | 0.0 | 0.00 | 0.00 | 0.00 | 29 | 1012.6 |
| 20260510024558 | 69 | 0 | 0.0 | 0.0 | 0.00 | 0.00 | 0.00 | 27 | 1012.3 |
| 20260510023049 | 71 | 0 | 0.0 | 0.0 | 0.00 | 0.00 | 0.00 | 24 | 1012.0 |
| 20260510021601 | 72 | 304 | 0.0 | 0.0 | 0.00 | 0.00 | 0.00 | 21 | 1011.9 |
| 20260510020052 | 75 | 0 | 0.0 | 0.0 | 0.00 | 0.00 | 0.00 | 19 | 1011.7 |
| 20260510014600 | 78 | 0 | 0.0 | 0.0 | 0.00 | 0.00 | 0.00 | 16 | 1011.7 |
| 20260510013110 | 80 | 0 | 0.0 | 2.0 | 0.00 | 0.00 | 0.00 | 12 | 1011.4 |
| 20260510011549 | 82 | 285 | 0.0 | 3.0 | 0.00 | 0.00 | 0.00 | 12 | 1011.3 |
| 20260510010057 | 83 | 0 | 0.0 | 3.0 | 0.00 | 0.00 | 0.00 | 13 | 1011.3 |
| 20260510004553 | 84 | 236 | 1.0 | 6.0 | 0.00 | 0.00 | 0.00 | 11 | 1011.3 |
| 20260510003102 | 84 | 0 | 1.0 | 7.0 | 0.00 | 0.00 | 0.00 | 12 | 1011.3 |
| 20260510001553 | 85 | 336 | 1.0 | 7.0 | 0.00 | 0.00 | 0.00 | 12 | 1011.2 |
| 20260510000106 | 85 | 317 | 1.0 | 5.0 | 0.00 | 0.00 | 0.00 | 13 | 1011.2 |
| 20260509234548 | 86 | 302 | 0.0 | 4.0 | 0.00 | 0.00 | 0.00 | 14 | 1011.2 |
| 20260509233047 | 87 | 281 | 0.0 | 7.0 | 0.00 | 0.00 | 0.00 | 12 | 1011.2 |
| 20260509231553 | 88 | 78 | 1.0 | 4.0 | 0.00 | 0.00 | 0.00 | 9 | 1011.2 |
| 20260509230057 | 87 | 8 | 2.0 | 7.0 | 0.00 | 0.00 | 0.00 | 11 | 1011.3 |